sensor_id;sensor_type;location;lat;lon;timestamp;P1;P2;P0
77515;PMS5003;66627;29.424;-98.496;2023-01-30T00:00:34;10;7;
77515;PMS5003;66627;29.424;-98.496;2023-01-30T00:02:59;8;8;
77515;PMS5003;66627;29.424;-98.496;2023-01-30T00:05:24;8;8;
77515;PMS5003;66627;29.424;-98.496;2023-01-30T00:07:50;12;9;
77515;PMS5003;66627;29.424;-98.496;2023-01-30T00:10:15;10;9;
77515;PMS5003;66627;29.424;-98.496;2023-01-30T00:12:40;8;7;
77515;PMS5003;66627;29.424;-98.496;2023-01-30T00:15:05;9;9;
77515;PMS5003;66627;29.424;-98.496;2023-01-30T00:17:30;10;10;
77515;PMS5003;66627;29.424;-98.496;2023-01-30T00:19:56;10;7;
77515;PMS5003;66627;29.424;-98.496;2023-01-30T00:22:22;9;8;
77515;PMS5003;66627;29.424;-98.496;2023-01-30T00:24:47;14;14;
77515;PMS5003;66627;29.424;-98.496;2023-01-30T00:27:12;10;9;
77515;PMS5003;66627;29.424;-98.496;2023-01-30T00:29:37;10;10;
77515;PMS5003;66627;29.424;-98.496;2023-01-30T00:32:03;9;8;
77515;PMS5003;66627;29.424;-98.496;2023-01-30T00:34:28;10;7;
77515;PMS5003;66627;29.424;-98.496;2023-01-30T00:36:53;9;9;
77515;PMS5003;66627;29.424;-98.496;2023-01-30T00:39:19;9;9;
77515;PMS5003;66627;29.424;-98.496;2023-01-30T00:41:44;9;9;
77515;PMS5003;66627;29.424;-98.496;2023-01-30T00:44:09;8;8;
77515;PMS5003;66627;29.424;-98.496;2023-01-30T00:46:35;10;10;
77515;PMS5003;66627;29.424;-98.496;2023-01-30T00:49:00;8;8;
77515;PMS5003;66627;29.424;-98.496;2023-01-30T00:51:25;8;8;
77515;PMS5003;66627;29.424;-98.496;2023-01-30T00:53:50;8;8;
77515;PMS5003;66627;29.424;-98.496;2023-01-30T00:56:16;6;5;
77515;PMS5003;66627;29.424;-98.496;2023-01-30T00:58:41;8;7;
77515;PMS5003;66627;29.424;-98.496;2023-01-30T01:01:07;9;8;
77515;PMS5003;66627;29.424;-98.496;2023-01-30T01:03:32;6;6;
77515;PMS5003;66627;29.424;-98.496;2023-01-30T01:05:56;8;6;
77515;PMS5003;66627;29.424;-98.496;2023-01-30T01:08:22;7;7;
77515;PMS5003;66627;29.424;-98.496;2023-01-30T01:10:47;6;6;
77515;PMS5003;66627;29.424;-98.496;2023-01-30T01:13:12;7;7;
77515;PMS5003;66627;29.424;-98.496;2023-01-30T01:15:38;11;11;
77515;PMS5003;66627;29.424;-98.496;2023-01-30T01:18:03;16;15;
77515;PMS5003;66627;29.424;-98.496;2023-01-30T01:20:28;14;14;
77515;PMS5003;66627;29.424;-98.496;2023-01-30T01:22:53;15;15;
77515;PMS5003;66627;29.424;-98.496;2023-01-30T01:25:19;16;14;
77515;PMS5003;66627;29.424;-98.496;2023-01-30T01:27:45;16;16;
77515;PMS5003;66627;29.424;-98.496;2023-01-30T01:30:10;19;19;
77515;PMS5003;66627;29.424;-98.496;2023-01-30T01:32:35;16;15;
77515;PMS5003;66627;29.424;-98.496;2023-01-30T01:35:01;16;16;
77515;PMS5003;66627;29.424;-98.496;2023-01-30T01:37:27;23;19;
77515;PMS5003;66627;29.424;-98.496;2023-01-30T01:39:52;19;16;
77515;PMS5003;66627;29.424;-98.496;2023-01-30T01:42:17;19;18;
77515;PMS5003;66627;29.424;-98.496;2023-01-30T01:47:08;21;17;
77515;PMS5003;66627;29.424;-98.496;2023-01-30T01:49:34;16;15;
77515;PMS5003;66627;29.424;-98.496;2023-01-30T01:52:00;17;17;
77515;PMS5003;66627;29.424;-98.496;2023-01-30T01:54:26;12;12;
77515;PMS5003;66627;29.424;-98.496;2023-01-30T01:56:50;17;15;
77515;PMS5003;66627;29.424;-98.496;2023-01-30T01:59:17;18;17;
77515;PMS5003;66627;29.424;-98.496;2023-01-30T02:01:42;23;17;
77515;PMS5003;66627;29.424;-98.496;2023-01-30T02:04:07;18;18;
77515;PMS5003;66627;29.424;-98.496;2023-01-30T02:06:33;20;17;
77515;PMS5003;66627;29.424;-98.496;2023-01-30T02:09:00;16;16;
77515;PMS5003;66627;29.424;-98.496;2023-01-30T02:11:25;25;20;
77515;PMS5003;66627;29.424;-98.496;2023-01-30T02:13:49;23;20;
77515;PMS5003;66627;29.424;-98.496;2023-01-30T02:16:15;20;17;
77515;PMS5003;66627;29.424;-98.496;2023-01-30T02:18:41;19;18;
77515;PMS5003;66627;29.424;-98.496;2023-01-30T02:23:36;22;21;
77515;PMS5003;66627;29.424;-98.496;2023-01-30T02:33:15;19;18;
77515;PMS5003;66627;29.424;-98.496;2023-01-30T02:35:42;17;16;
77515;PMS5003;66627;29.424;-98.496;2023-01-30T02:38:09;18;16;
77515;PMS5003;66627;29.424;-98.496;2023-01-30T02:40:35;25;25;
77515;PMS5003;66627;29.424;-98.496;2023-01-30T02:42:59;38;36;
77515;PMS5003;66627;29.424;-98.496;2023-01-30T02:45:22;19;18;
77515;PMS5003;66627;29.424;-98.496;2023-01-30T02:47:48;46;45;
77515;PMS5003;66627;29.424;-98.496;2023-01-30T02:50:13;26;25;
77515;PMS5003;66627;29.424;-98.496;2023-01-30T02:52:38;35;33;
77515;PMS5003;66627;29.424;-98.496;2023-01-30T02:55:06;56;53;
77515;PMS5003;66627;29.424;-98.496;2023-01-30T02:57:28;21;19;
77515;PMS5003;66627;29.424;-98.496;2023-01-30T02:59:55;16;16;
77515;PMS5003;66627;29.424;-98.496;2023-01-30T03:02:24;23;19;
77515;PMS5003;66627;29.424;-98.496;2023-01-30T03:04:48;20;17;
77515;PMS5003;66627;29.424;-98.496;2023-01-30T03:07:13;20;18;
77515;PMS5003;66627;29.424;-98.496;2023-01-30T03:09:37;18;16;
77515;PMS5003;66627;29.424;-98.496;2023-01-30T03:12:02;21;19;
77515;PMS5003;66627;29.424;-98.496;2023-01-30T03:14:27;19;18;
77515;PMS5003;66627;29.424;-98.496;2023-01-30T03:16:53;23;22;
77515;PMS5003;66627;29.424;-98.496;2023-01-30T03:19:17;26;22;
77515;PMS5003;66627;29.424;-98.496;2023-01-30T03:21:43;17;16;
77515;PMS5003;66627;29.424;-98.496;2023-01-30T03:24:08;18;17;
77515;PMS5003;66627;29.424;-98.496;2023-01-30T03:26:35;20;20;
77515;PMS5003;66627;29.424;-98.496;2023-01-30T03:28:59;23;23;
77515;PMS5003;66627;29.424;-98.496;2023-01-30T03:31:25;23;20;
77515;PMS5003;66627;29.424;-98.496;2023-01-30T03:33:50;27;22;
77515;PMS5003;66627;29.424;-98.496;2023-01-30T03:36:16;17;17;
77515;PMS5003;66627;29.424;-98.496;2023-01-30T03:38:41;23;19;
77515;PMS5003;66627;29.424;-98.496;2023-01-30T03:41:08;21;19;
77515;PMS5003;66627;29.424;-98.496;2023-01-30T03:43:32;25;19;
77515;PMS5003;66627;29.424;-98.496;2023-01-30T03:45:58;23;22;
77515;PMS5003;66627;29.424;-98.496;2023-01-30T03:48:24;23;20;
77515;PMS5003;66627;29.424;-98.496;2023-01-30T03:50:50;26;25;
77515;PMS5003;66627;29.424;-98.496;2023-01-30T03:53:14;26;24;
77515;PMS5003;66627;29.424;-98.496;2023-01-30T03:55:40;28;24;
77515;PMS5003;66627;29.424;-98.496;2023-01-30T03:58:05;29;25;
77515;PMS5003;66627;29.424;-98.496;2023-01-30T04:00:31;25;22;
77515;PMS5003;66627;29.424;-98.496;2023-01-30T04:02:56;33;26;
77515;PMS5003;66627;29.424;-98.496;2023-01-30T04:05:21;22;22;
77515;PMS5003;66627;29.424;-98.496;2023-01-30T04:07:47;36;32;
77515;PMS5003;66627;29.424;-98.496;2023-01-30T04:10:13;28;27;
77515;PMS5003;66627;29.424;-98.496;2023-01-30T04:12:38;28;25;
77515;PMS5003;66627;29.424;-98.496;2023-01-30T04:15:04;27;23;
77515;PMS5003;66627;29.424;-98.496;2023-01-30T04:17:29;30;29;
77515;PMS5003;66627;29.424;-98.496;2023-01-30T04:19:55;29;25;
77515;PMS5003;66627;29.424;-98.496;2023-01-30T04:22:20;22;22;
77515;PMS5003;66627;29.424;-98.496;2023-01-30T04:24:46;26;24;
77515;PMS5003;66627;29.424;-98.496;2023-01-30T04:27:11;27;25;
77515;PMS5003;66627;29.424;-98.496;2023-01-30T04:29:36;28;25;
77515;PMS5003;66627;29.424;-98.496;2023-01-30T04:32:02;23;22;
77515;PMS5003;66627;29.424;-98.496;2023-01-30T04:34:27;34;28;
77515;PMS5003;66627;29.424;-98.496;2023-01-30T04:36:52;30;22;
77515;PMS5003;66627;29.424;-98.496;2023-01-30T04:39:18;26;23;
77515;PMS5003;66627;29.424;-98.496;2023-01-30T04:41:44;29;25;
77515;PMS5003;66627;29.424;-98.496;2023-01-30T04:44:09;26;19;
77515;PMS5003;66627;29.424;-98.496;2023-01-30T04:46:34;31;25;
77515;PMS5003;66627;29.424;-98.496;2023-01-30T04:49:00;27;25;
77515;PMS5003;66627;29.424;-98.496;2023-01-30T04:51:27;23;21;
77515;PMS5003;66627;29.424;-98.496;2023-01-30T04:53:52;29;25;
77515;PMS5003;66627;29.424;-98.496;2023-01-30T04:56:17;24;18;
77515;PMS5003;66627;29.424;-98.496;2023-01-30T04:58:43;26;22;
77515;PMS5003;66627;29.424;-98.496;2023-01-30T05:01:13;26;26;
77515;PMS5003;66627;29.424;-98.496;2023-01-30T05:03:33;23;22;
77515;PMS5003;66627;29.424;-98.496;2023-01-30T05:05:59;21;21;
77515;PMS5003;66627;29.424;-98.496;2023-01-30T05:08:24;23;21;
77515;PMS5003;66627;29.424;-98.496;2023-01-30T05:10:50;24;19;
77515;PMS5003;66627;29.424;-98.496;2023-01-30T05:13:15;19;19;
77515;PMS5003;66627;29.424;-98.496;2023-01-30T05:15:40;25;23;
77515;PMS5003;66627;29.424;-98.496;2023-01-30T05:18:06;20;20;
77515;PMS5003;66627;29.424;-98.496;2023-01-30T05:20:31;28;22;
77515;PMS5003;66627;29.424;-98.496;2023-01-30T05:22:56;20;18;
77515;PMS5003;66627;29.424;-98.496;2023-01-30T05:25:22;21;19;
77515;PMS5003;66627;29.424;-98.496;2023-01-30T05:27:47;20;18;
77515;PMS5003;66627;29.424;-98.496;2023-01-30T05:30:13;20;15;
77515;PMS5003;66627;29.424;-98.496;2023-01-30T05:32:39;25;21;
77515;PMS5003;66627;29.424;-98.496;2023-01-30T05:35:05;22;18;
77515;PMS5003;66627;29.424;-98.496;2023-01-30T05:37:30;17;16;
77515;PMS5003;66627;29.424;-98.496;2023-01-30T05:39:56;19;19;
77515;PMS5003;66627;29.424;-98.496;2023-01-30T05:42:22;22;20;
77515;PMS5003;66627;29.424;-98.496;2023-01-30T05:44:47;19;19;
77515;PMS5003;66627;29.424;-98.496;2023-01-30T05:47:12;21;20;
77515;PMS5003;66627;29.424;-98.496;2023-01-30T05:49:38;22;21;
77515;PMS5003;66627;29.424;-98.496;2023-01-30T05:52:03;18;17;
77515;PMS5003;66627;29.424;-98.496;2023-01-30T05:54:29;19;18;
77515;PMS5003;66627;29.424;-98.496;2023-01-30T05:56:54;21;19;
77515;PMS5003;66627;29.424;-98.496;2023-01-30T05:59:20;20;17;
77515;PMS5003;66627;29.424;-98.496;2023-01-30T06:01:46;19;18;
77515;PMS5003;66627;29.424;-98.496;2023-01-30T06:04:12;16;16;
77515;PMS5003;66627;29.424;-98.496;2023-01-30T06:06:37;18;18;
77515;PMS5003;66627;29.424;-98.496;2023-01-30T06:09:03;15;15;
77515;PMS5003;66627;29.424;-98.496;2023-01-30T06:11:29;22;18;
77515;PMS5003;66627;29.424;-98.496;2023-01-30T06:13:54;20;18;
77515;PMS5003;66627;29.424;-98.496;2023-01-30T06:16:20;22;19;
77515;PMS5003;66627;29.424;-98.496;2023-01-30T06:18:46;20;17;
77515;PMS5003;66627;29.424;-98.496;2023-01-30T06:21:11;19;17;
77515;PMS5003;66627;29.424;-98.496;2023-01-30T06:23:36;19;15;
77515;PMS5003;66627;29.424;-98.496;2023-01-30T06:26:02;21;20;
77515;PMS5003;66627;29.424;-98.496;2023-01-30T06:28:28;24;23;
77515;PMS5003;66627;29.424;-98.496;2023-01-30T06:30:53;16;16;
77515;PMS5003;66627;29.424;-98.496;2023-01-30T06:33:19;18;16;
77515;PMS5003;66627;29.424;-98.496;2023-01-30T06:35:47;22;16;
77515;PMS5003;66627;29.424;-98.496;2023-01-30T06:38:10;17;13;
77515;PMS5003;66627;29.424;-98.496;2023-01-30T06:40:35;16;16;
77515;PMS5003;66627;29.424;-98.496;2023-01-30T06:43:01;21;16;
77515;PMS5003;66627;29.424;-98.496;2023-01-30T06:45:27;20;17;
77515;PMS5003;66627;29.424;-98.496;2023-01-30T06:47:53;16;15;
77515;PMS5003;66627;29.424;-98.496;2023-01-30T06:50:18;17;17;
77515;PMS5003;66627;29.424;-98.496;2023-01-30T06:52:44;18;18;
77515;PMS5003;66627;29.424;-98.496;2023-01-30T06:55:09;19;17;
77515;PMS5003;66627;29.424;-98.496;2023-01-30T06:57:34;18;16;
77515;PMS5003;66627;29.424;-98.496;2023-01-30T06:59:59;21;16;
77515;PMS5003;66627;29.424;-98.496;2023-01-30T07:02:25;15;14;
77515;PMS5003;66627;29.424;-98.496;2023-01-30T07:04:50;17;14;
77515;PMS5003;66627;29.424;-98.496;2023-01-30T07:07:15;20;16;
77515;PMS5003;66627;29.424;-98.496;2023-01-30T07:09:41;16;16;
77515;PMS5003;66627;29.424;-98.496;2023-01-30T07:12:06;19;16;
77515;PMS5003;66627;29.424;-98.496;2023-01-30T07:14:31;16;15;
77515;PMS5003;66627;29.424;-98.496;2023-01-30T07:16:56;18;17;
77515;PMS5003;66627;29.424;-98.496;2023-01-30T07:19:21;19;17;
77515;PMS5003;66627;29.424;-98.496;2023-01-30T07:21:47;18;16;
77515;PMS5003;66627;29.424;-98.496;2023-01-30T07:24:13;19;16;
77515;PMS5003;66627;29.424;-98.496;2023-01-30T07:26:38;19;15;
77515;PMS5003;66627;29.424;-98.496;2023-01-30T07:29:04;16;14;
77515;PMS5003;66627;29.424;-98.496;2023-01-30T07:31:29;21;17;
77515;PMS5003;66627;29.424;-98.496;2023-01-30T07:33:55;11;11;
77515;PMS5003;66627;29.424;-98.496;2023-01-30T07:36:20;19;15;
77515;PMS5003;66627;29.424;-98.496;2023-01-30T07:38:46;13;13;
77515;PMS5003;66627;29.424;-98.496;2023-01-30T07:41:11;13;13;
77515;PMS5003;66627;29.424;-98.496;2023-01-30T07:43:36;18;16;
77515;PMS5003;66627;29.424;-98.496;2023-01-30T07:46:01;13;13;
77515;PMS5003;66627;29.424;-98.496;2023-01-30T07:48:27;17;14;
77515;PMS5003;66627;29.424;-98.496;2023-01-30T07:50:54;14;14;
77515;PMS5003;66627;29.424;-98.496;2023-01-30T07:53:18;17;15;
77515;PMS5003;66627;29.424;-98.496;2023-01-30T07:55:44;16;16;
77515;PMS5003;66627;29.424;-98.496;2023-01-30T07:58:10;16;15;
77515;PMS5003;66627;29.424;-98.496;2023-01-30T08:00:35;12;11;
77515;PMS5003;66627;29.424;-98.496;2023-01-30T08:03:00;17;16;
77515;PMS5003;66627;29.424;-98.496;2023-01-30T08:05:27;14;14;
77515;PMS5003;66627;29.424;-98.496;2023-01-30T08:07:54;14;12;
77515;PMS5003;66627;29.424;-98.496;2023-01-30T08:10:18;17;14;
77515;PMS5003;66627;29.424;-98.496;2023-01-30T08:12:43;14;14;
77515;PMS5003;66627;29.424;-98.496;2023-01-30T08:15:09;14;14;
77515;PMS5003;66627;29.424;-98.496;2023-01-30T08:17:36;13;13;
77515;PMS5003;66627;29.424;-98.496;2023-01-30T08:20:00;17;15;
77515;PMS5003;66627;29.424;-98.496;2023-01-30T08:22:27;13;12;
77515;PMS5003;66627;29.424;-98.496;2023-01-30T08:24:52;17;14;
77515;PMS5003;66627;29.424;-98.496;2023-01-30T08:27:17;14;13;
77515;PMS5003;66627;29.424;-98.496;2023-01-30T08:29:43;12;12;
77515;PMS5003;66627;29.424;-98.496;2023-01-30T08:32:08;20;19;
77515;PMS5003;66627;29.424;-98.496;2023-01-30T08:34:34;22;17;
77515;PMS5003;66627;29.424;-98.496;2023-01-30T08:36:59;19;14;
77515;PMS5003;66627;29.424;-98.496;2023-01-30T08:39:25;12;12;
77515;PMS5003;66627;29.424;-98.496;2023-01-30T08:41:50;19;15;
77515;PMS5003;66627;29.424;-98.496;2023-01-30T08:44:16;18;17;
77515;PMS5003;66627;29.424;-98.496;2023-01-30T08:46:41;16;16;
77515;PMS5003;66627;29.424;-98.496;2023-01-30T08:49:06;16;15;
77515;PMS5003;66627;29.424;-98.496;2023-01-30T08:51:32;18;15;
77515;PMS5003;66627;29.424;-98.496;2023-01-30T08:53:58;18;14;
77515;PMS5003;66627;29.424;-98.496;2023-01-30T08:56:23;13;13;
77515;PMS5003;66627;29.424;-98.496;2023-01-30T08:58:49;14;13;
77515;PMS5003;66627;29.424;-98.496;2023-01-30T09:01:14;19;16;
77515;PMS5003;66627;29.424;-98.496;2023-01-30T09:03:39;20;16;
77515;PMS5003;66627;29.424;-98.496;2023-01-30T09:06:04;19;18;
77515;PMS5003;66627;29.424;-98.496;2023-01-30T09:08:30;17;15;
77515;PMS5003;66627;29.424;-98.496;2023-01-30T09:10:57;15;15;
77515;PMS5003;66627;29.424;-98.496;2023-01-30T09:13:21;19;17;
77515;PMS5003;66627;29.424;-98.496;2023-01-30T09:15:47;18;16;
77515;PMS5003;66627;29.424;-98.496;2023-01-30T09:18:12;15;15;
77515;PMS5003;66627;29.424;-98.496;2023-01-30T09:20:38;17;15;
77515;PMS5003;66627;29.424;-98.496;2023-01-30T09:23:03;15;15;
77515;PMS5003;66627;29.424;-98.496;2023-01-30T09:25:29;17;17;
77515;PMS5003;66627;29.424;-98.496;2023-01-30T09:27:55;15;15;
77515;PMS5003;66627;29.424;-98.496;2023-01-30T09:30:20;17;17;
77515;PMS5003;66627;29.424;-98.496;2023-01-30T09:32:45;14;13;
77515;PMS5003;66627;29.424;-98.496;2023-01-30T09:35:11;20;18;
77515;PMS5003;66627;29.424;-98.496;2023-01-30T09:37:36;18;17;
77515;PMS5003;66627;29.424;-98.496;2023-01-30T09:40:02;18;14;
77515;PMS5003;66627;29.424;-98.496;2023-01-30T09:42:34;16;14;
77515;PMS5003;66627;29.424;-98.496;2023-01-30T09:44:58;20;16;
77515;PMS5003;66627;29.424;-98.496;2023-01-30T09:47:21;11;11;
77515;PMS5003;66627;29.424;-98.496;2023-01-30T09:49:46;13;11;
77515;PMS5003;66627;29.424;-98.496;2023-01-30T09:52:14;15;13;
77515;PMS5003;66627;29.424;-98.496;2023-01-30T09:54:35;14;13;
77515;PMS5003;66627;29.424;-98.496;2023-01-30T09:57:07;11;11;
77515;PMS5003;66627;29.424;-98.496;2023-01-30T09:59:29;17;13;
77515;PMS5003;66627;29.424;-98.496;2023-01-30T10:01:52;15;14;
77515;PMS5003;66627;29.424;-98.496;2023-01-30T10:04:17;12;12;
77515;PMS5003;66627;29.424;-98.496;2023-01-30T10:06:43;14;12;
77515;PMS5003;66627;29.424;-98.496;2023-01-30T10:09:07;11;11;
77515;PMS5003;66627;29.424;-98.496;2023-01-30T10:11:36;12;11;
77515;PMS5003;66627;29.424;-98.496;2023-01-30T10:14:03;13;12;
77515;PMS5003;66627;29.424;-98.496;2023-01-30T10:16:23;15;13;
77515;PMS5003;66627;29.424;-98.496;2023-01-30T10:18:54;10;10;
77515;PMS5003;66627;29.424;-98.496;2023-01-30T10:21:15;13;13;
77515;PMS5003;66627;29.424;-98.496;2023-01-30T10:23:44;11;11;
77515;PMS5003;66627;29.424;-98.496;2023-01-30T10:26:05;6;6;
77515;PMS5003;66627;29.424;-98.496;2023-01-30T10:28:30;14;10;
77515;PMS5003;66627;29.424;-98.496;2023-01-30T10:31:03;11;11;
77515;PMS5003;66627;29.424;-98.496;2023-01-30T10:33:21;13;10;
77515;PMS5003;66627;29.424;-98.496;2023-01-30T10:35:46;11;10;
77515;PMS5003;66627;29.424;-98.496;2023-01-30T10:38:11;10;10;
77515;PMS5003;66627;29.424;-98.496;2023-01-30T10:40:37;9;9;
77515;PMS5003;66627;29.424;-98.496;2023-01-30T10:43:03;11;9;
77515;PMS5003;66627;29.424;-98.496;2023-01-30T10:45:27;10;6;
77515;PMS5003;66627;29.424;-98.496;2023-01-30T10:47:55;7;7;
77515;PMS5003;66627;29.424;-98.496;2023-01-30T10:50:17;8;7;
77515;PMS5003;66627;29.424;-98.496;2023-01-30T10:52:44;10;10;
77515;PMS5003;66627;29.424;-98.496;2023-01-30T10:55:10;7;6;
77515;PMS5003;66627;29.424;-98.496;2023-01-30T11:00:00;9;9;
77515;PMS5003;66627;29.424;-98.496;2023-01-30T11:02:24;12;9;
77515;PMS5003;66627;29.424;-98.496;2023-01-30T11:04:51;8;7;
77515;PMS5003;66627;29.424;-98.496;2023-01-30T11:07:15;7;7;
77515;PMS5003;66627;29.424;-98.496;2023-01-30T11:09:41;7;6;
77515;PMS5003;66627;29.424;-98.496;2023-01-30T11:12:05;8;8;
77515;PMS5003;66627;29.424;-98.496;2023-01-30T11:16:56;9;9;
77515;PMS5003;66627;29.424;-98.496;2023-01-30T11:19:23;8;6;
77515;PMS5003;66627;29.424;-98.496;2023-01-30T11:21:47;8;8;
77515;PMS5003;66627;29.424;-98.496;2023-01-30T11:24:14;10;8;
77515;PMS5003;66627;29.424;-98.496;2023-01-30T11:26:39;8;8;
77515;PMS5003;66627;29.424;-98.496;2023-01-30T11:31:29;10;9;
77515;PMS5003;66627;29.424;-98.496;2023-01-30T11:33:59;7;7;
77515;PMS5003;66627;29.424;-98.496;2023-01-30T11:36:24;7;7;
77515;PMS5003;66627;29.424;-98.496;2023-01-30T11:41:19;9;9;
77515;PMS5003;66627;29.424;-98.496;2023-01-30T11:43:37;9;9;
77515;PMS5003;66627;29.424;-98.496;2023-01-30T11:46:01;7;5;
77515;PMS5003;66627;29.424;-98.496;2023-01-30T11:48:27;6;6;
77515;PMS5003;66627;29.424;-98.496;2023-01-30T11:50:53;5;5;
77515;PMS5003;66627;29.424;-98.496;2023-01-30T11:53:20;6;6;
77515;PMS5003;66627;29.424;-98.496;2023-01-30T11:55:42;5;4;
77515;PMS5003;66627;29.424;-98.496;2023-01-30T11:58:08;7;7;
77515;PMS5003;66627;29.424;-98.496;2023-01-30T12:00:37;7;7;
77515;PMS5003;66627;29.424;-98.496;2023-01-30T12:02:59;6;6;
77515;PMS5003;66627;29.424;-98.496;2023-01-30T12:05:25;5;5;
77515;PMS5003;66627;29.424;-98.496;2023-01-30T12:07:49;7;7;
77515;PMS5003;66627;29.424;-98.496;2023-01-30T12:10:24;6;6;
77515;PMS5003;66627;29.424;-98.496;2023-01-30T12:12:42;5;5;
77515;PMS5003;66627;29.424;-98.496;2023-01-30T12:15:12;9;6;
77515;PMS5003;66627;29.424;-98.496;2023-01-30T12:17:33;7;6;
77515;PMS5003;66627;29.424;-98.496;2023-01-30T12:19:57;8;7;
77515;PMS5003;66627;29.424;-98.496;2023-01-30T12:22:23;5;5;
77515;PMS5003;66627;29.424;-98.496;2023-01-30T12:24:49;6;4;
77515;PMS5003;66627;29.424;-98.496;2023-01-30T12:27:12;10;9;
77515;PMS5003;66627;29.424;-98.496;2023-01-30T12:29:48;7;7;
77515;PMS5003;66627;29.424;-98.496;2023-01-30T12:32:04;6;6;
77515;PMS5003;66627;29.424;-98.496;2023-01-30T12:34:27;8;5;
77515;PMS5003;66627;29.424;-98.496;2023-01-30T12:36:54;6;4;
77515;PMS5003;66627;29.424;-98.496;2023-01-30T12:39:23;9;6;
77515;PMS5003;66627;29.424;-98.496;2023-01-30T12:41:47;4;4;
77515;PMS5003;66627;29.424;-98.496;2023-01-30T12:44:14;5;5;
77515;PMS5003;66627;29.424;-98.496;2023-01-30T12:46:38;6;5;
77515;PMS5003;66627;29.424;-98.496;2023-01-30T12:49:03;5;5;
77515;PMS5003;66627;29.424;-98.496;2023-01-30T12:53:53;8;8;
77515;PMS5003;66627;29.424;-98.496;2023-01-30T12:56:20;5;5;
77515;PMS5003;66627;29.424;-98.496;2023-01-30T12:58:42;5;4;
77515;PMS5003;66627;29.424;-98.496;2023-01-30T13:01:10;4;4;
77515;PMS5003;66627;29.424;-98.496;2023-01-30T13:03:34;8;8;
77515;PMS5003;66627;29.424;-98.496;2023-01-30T13:06:02;5;5;
77515;PMS5003;66627;29.424;-98.496;2023-01-30T13:08:28;6;6;
77515;PMS5003;66627;29.424;-98.496;2023-01-30T13:10:49;10;6;
77515;PMS5003;66627;29.424;-98.496;2023-01-30T13:13:16;6;4;
77515;PMS5003;66627;29.424;-98.496;2023-01-30T13:15:40;7;6;
77515;PMS5003;66627;29.424;-98.496;2023-01-30T13:18:05;5;4;
77515;PMS5003;66627;29.424;-98.496;2023-01-30T13:22:55;5;5;
77515;PMS5003;66627;29.424;-98.496;2023-01-30T13:25:21;8;5;
77515;PMS5003;66627;29.424;-98.496;2023-01-30T13:27:48;6;6;
77515;PMS5003;66627;29.424;-98.496;2023-01-30T13:30:13;5;5;
77515;PMS5003;66627;29.424;-98.496;2023-01-30T13:32:37;4;4;
77515;PMS5003;66627;29.424;-98.496;2023-01-30T13:35:02;7;6;
77515;PMS5003;66627;29.424;-98.496;2023-01-30T13:37:26;7;7;
77515;PMS5003;66627;29.424;-98.496;2023-01-30T13:39:54;6;4;
77515;PMS5003;66627;29.424;-98.496;2023-01-30T13:42:19;6;6;
77515;PMS5003;66627;29.424;-98.496;2023-01-30T13:44:43;5;5;
77515;PMS5003;66627;29.424;-98.496;2023-01-30T13:49:37;5;5;
77515;PMS5003;66627;29.424;-98.496;2023-01-30T13:52:00;7;6;
77515;PMS5003;66627;29.424;-98.496;2023-01-30T13:54:29;4;4;
77515;PMS5003;66627;29.424;-98.496;2023-01-30T13:56:52;9;5;
77515;PMS5003;66627;29.424;-98.496;2023-01-30T13:59:19;6;6;
77515;PMS5003;66627;29.424;-98.496;2023-01-30T14:06:33;5;3;
77515;PMS5003;66627;29.424;-98.496;2023-01-30T14:08:57;6;5;
77515;PMS5003;66627;29.424;-98.496;2023-01-30T14:11:28;8;6;
77515;PMS5003;66627;29.424;-98.496;2023-01-30T14:13:50;7;7;
77515;PMS5003;66627;29.424;-98.496;2023-01-30T14:16:13;8;5;
77515;PMS5003;66627;29.424;-98.496;2023-01-30T14:18:39;6;6;
77515;PMS5003;66627;29.424;-98.496;2023-01-30T14:21:11;12;8;
77515;PMS5003;66627;29.424;-98.496;2023-01-30T14:23:31;7;7;
77515;PMS5003;66627;29.424;-98.496;2023-01-30T14:25:55;6;5;
77515;PMS5003;66627;29.424;-98.496;2023-01-30T14:30:46;8;6;
77515;PMS5003;66627;29.424;-98.496;2023-01-30T14:35:36;7;7;
77515;PMS5003;66627;29.424;-98.496;2023-01-30T14:40:29;6;6;
77515;PMS5003;66627;29.424;-98.496;2023-01-30T14:45:18;11;7;
77515;PMS5003;66627;29.424;-98.496;2023-01-30T14:47:43;8;8;
77515;PMS5003;66627;29.424;-98.496;2023-01-30T14:52:36;10;10;
77515;PMS5003;66627;29.424;-98.496;2023-01-30T14:55:01;9;8;
77515;PMS5003;66627;29.424;-98.496;2023-01-30T14:57:26;9;8;
77515;PMS5003;66627;29.424;-98.496;2023-01-30T14:59:52;9;8;
77515;PMS5003;66627;29.424;-98.496;2023-01-30T15:02:18;7;7;
77515;PMS5003;66627;29.424;-98.496;2023-01-30T15:04:42;8;8;
77515;PMS5003;66627;29.424;-98.496;2023-01-30T15:07:09;10;9;
77515;PMS5003;66627;29.424;-98.496;2023-01-30T15:09:33;8;6;
77515;PMS5003;66627;29.424;-98.496;2023-01-30T15:12:04;7;7;
77515;PMS5003;66627;29.424;-98.496;2023-01-30T15:14:26;7;7;
77515;PMS5003;66627;29.424;-98.496;2023-01-30T15:16:54;10;8;
77515;PMS5003;66627;29.424;-98.496;2023-01-30T15:19:19;8;7;
77515;PMS5003;66627;29.424;-98.496;2023-01-30T15:21:46;7;7;
77515;PMS5003;66627;29.424;-98.496;2023-01-30T15:24:11;8;8;
77515;PMS5003;66627;29.424;-98.496;2023-01-30T15:26:34;6;6;
77515;PMS5003;66627;29.424;-98.496;2023-01-30T15:29:16;6;6;
77515;PMS5003;66627;29.424;-98.496;2023-01-30T15:31:22;8;7;
77515;PMS5003;66627;29.424;-98.496;2023-01-30T15:33:48;8;8;
77515;PMS5003;66627;29.424;-98.496;2023-01-30T15:36:18;6;5;
77515;PMS5003;66627;29.424;-98.496;2023-01-30T15:38:39;9;8;
77515;PMS5003;66627;29.424;-98.496;2023-01-30T15:41:05;8;8;
77515;PMS5003;66627;29.424;-98.496;2023-01-30T15:43:36;8;7;
77515;PMS5003;66627;29.424;-98.496;2023-01-30T15:45:59;10;8;
77515;PMS5003;66627;29.424;-98.496;2023-01-30T15:48:26;8;8;
77515;PMS5003;66627;29.424;-98.496;2023-01-30T15:50:46;8;7;
77515;PMS5003;66627;29.424;-98.496;2023-01-30T15:53:11;9;6;
77515;PMS5003;66627;29.424;-98.496;2023-01-30T15:55:36;5;5;
77515;PMS5003;66627;29.424;-98.496;2023-01-30T15:58:02;9;9;
77515;PMS5003;66627;29.424;-98.496;2023-01-30T16:00:28;10;9;
77515;PMS5003;66627;29.424;-98.496;2023-01-30T16:02:52;13;8;
77515;PMS5003;66627;29.424;-98.496;2023-01-30T16:05:18;9;7;
77515;PMS5003;66627;29.424;-98.496;2023-01-30T16:07:43;10;10;
77515;PMS5003;66627;29.424;-98.496;2023-01-30T16:10:11;7;7;
77515;PMS5003;66627;29.424;-98.496;2023-01-30T16:12:34;9;7;
77515;PMS5003;66627;29.424;-98.496;2023-01-30T16:14:59;8;8;
77515;PMS5003;66627;29.424;-98.496;2023-01-30T16:17:25;10;10;
77515;PMS5003;66627;29.424;-98.496;2023-01-30T16:19:50;9;9;
77515;PMS5003;66627;29.424;-98.496;2023-01-30T16:22:15;9;7;
77515;PMS5003;66627;29.424;-98.496;2023-01-30T16:24:42;9;9;
77515;PMS5003;66627;29.424;-98.496;2023-01-30T16:27:06;10;10;
77515;PMS5003;66627;29.424;-98.496;2023-01-30T16:29:32;8;8;